Portada
METAR-TAF:

METAR-TAF

Aeroports :

Aneityum, Vanuatu

latitud: 20-14-57S, longitud: 169-46-17E, altitud: 2 m

Observació

L'informe es va fer fa 2 hores i 51 minuts, a les 03:00 UTC
Vent 7 kt del Nord-Est
Temperatura 28°C
Humitat 70%
Pressió 1008 hPa

METAR: NVVA 010300Z AUTO 05007KT //// NCD 28/22 Q1008

Hora: 16:51 (05:51 UTC)

Pronòstic

L'informe es va fer fa 6 hores i 51 minuts, a les 23:00 UTC
Pronòstic vàlid del 01 a les 00 UTC al 01 a les 24 UTC
Vent 15 kt del Oest/Nord-Oest
Visibilitat: 9000 m
Núvols disperses a una alçada de 2200 ft
Cel ennuvolat a una alçada de 4000 ft
Cel ennuvolat a una alçada de 1800 ft
Cel cobert a una alçada de 3800 ft
xàfecs de pluja

TAF: NVVA 302300Z 0100/0124 30015KT 9999 SCT022 BKN040 INTER 0100/0106 9000 SHRA BKN018 OVC038

Observacions i pronòstics meteorològics de més de 4000 aeroports (METAR i TAF).

Les estacions disponibles són els punts grocs i vermells al mapa.

Posi el ratolí al punt desitjat per veure el nom de l'estació.

Feu clic per veure les observacions i els pronòstics meteorològics.

Per canviar el mapa: feu clic els botons verds amb una creu de color negre per apropar; al botó verd amb un guió per allunyar la imatge; o en les fletxes verdes per a mapes adjacents.


METAR-TAF: